createdAt,value
2022-10-30T00:02:59.705Z,96164.00
2022-10-30T00:07:02.695Z,96159.00
2022-10-30T00:11:09.892Z,96165.00
2022-10-30T00:15:15.917Z,96158.00
2022-10-30T00:19:18.756Z,96164.00
2022-10-30T00:23:21.466Z,96157.00
2022-10-30T00:27:24.180Z,96152.00
2022-10-30T00:31:28.441Z,96150.00
2022-10-30T00:35:31.687Z,96154.00
2022-10-30T00:39:34.474Z,96152.00
2022-10-30T00:43:39.255Z,96154.00
2022-10-30T00:47:46.070Z,96148.00
2022-10-30T00:51:52.341Z,96148.00
2022-10-30T00:56:00.136Z,96151.00
2022-10-30T01:00:03.779Z,96152.00
2022-10-30T01:04:08.494Z,96146.00
2022-10-30T01:08:11.288Z,96158.00
2022-10-30T01:12:14.163Z,96149.00
2022-10-30T01:16:39.374Z,96157.00
2022-10-30T01:21:09.858Z,96152.00
2022-10-30T01:25:20.132Z,96156.00
2022-10-30T01:29:42.423Z,96162.00
2022-10-30T01:34:00.793Z,96162.00
2022-10-30T01:38:10.757Z,96163.00
2022-10-30T01:42:44.834Z,96162.00
2022-10-30T01:47:12.906Z,96166.00
2022-10-30T01:51:21.653Z,96175.00
2022-10-30T01:55:38.372Z,96160.00
2022-10-30T01:59:45.591Z,96164.00
2022-10-30T02:03:48.855Z,96179.00
2022-10-30T02:07:51.666Z,96167.00
2022-10-30T02:11:56.456Z,96161.00
2022-10-30T02:16:00.500Z,96160.00
2022-10-30T02:20:03.194Z,96157.00
2022-10-30T02:24:08.574Z,96155.00
2022-10-30T02:28:11.911Z,96143.00
2022-10-30T02:32:14.577Z,96135.00
2022-10-30T02:36:17.985Z,96145.00
2022-10-30T02:40:22.058Z,96145.00
2022-10-30T02:44:24.755Z,96138.00
2022-10-30T02:48:27.448Z,96129.00
2022-10-30T02:52:30.177Z,96135.00
2022-10-30T02:56:34.241Z,96125.00
2022-10-30T03:00:37.029Z,96135.00
2022-10-30T03:04:39.851Z,96134.00
2022-10-30T03:08:43.185Z,96131.00
2022-10-30T03:12:47.277Z,96129.00
2022-10-30T03:16:52.620Z,96122.00
2022-10-30T03:20:58.542Z,96129.00
2022-10-30T03:25:01.249Z,96126.00
2022-10-30T03:29:05.325Z,96129.00
2022-10-30T03:33:08.805Z,96127.00
2022-10-30T03:37:11.552Z,96113.00
2022-10-30T03:41:14.794Z,96117.00
2022-10-30T03:45:20.781Z,96113.00
2022-10-30T03:49:23.729Z,96117.00
2022-10-30T03:53:28.454Z,96124.00
2022-10-30T03:57:31.447Z,96126.00
2022-10-30T04:01:45.668Z,96127.00
2022-10-30T04:05:50.986Z,96127.00
2022-10-30T04:09:54.808Z,96127.00
2022-10-30T04:13:57.643Z,96129.00
2022-10-30T04:18:02.555Z,96115.00
2022-10-30T04:22:06.851Z,96130.00
2022-10-30T04:26:11.117Z,96129.00
2022-10-30T04:30:16.337Z,96121.00
2022-10-30T04:34:20.686Z,96130.00
2022-10-30T04:38:23.698Z,96136.00
2022-10-30T04:42:26.851Z,96124.00
2022-10-30T04:46:29.989Z,96126.00
2022-10-30T04:50:40.642Z,96119.00
2022-10-30T04:54:43.401Z,96117.00
2022-10-30T04:58:46.246Z,96113.00
2022-10-30T05:02:49.166Z,96108.00
2022-10-30T05:06:53.301Z,96103.00
2022-10-30T05:10:57.034Z,96100.00
2022-10-30T05:14:59.781Z,96102.00
2022-10-30T05:19:02.979Z,96092.00
2022-10-30T05:23:07.383Z,96086.00
2022-10-30T05:27:10.154Z,96090.00
2022-10-30T05:31:12.847Z,96090.00
2022-10-30T05:35:35.479Z,96085.00
2022-10-30T05:39:42.274Z,96093.00
2022-10-30T05:43:54.597Z,96093.00
2022-10-30T05:47:58.723Z,96095.00
2022-10-30T05:52:01.748Z,96095.00
2022-10-30T05:56:06.178Z,96094.00
2022-10-30T06:00:11.784Z,96087.00
2022-10-30T06:04:17.976Z,96099.00
2022-10-30T06:08:21.084Z,96097.00
2022-10-30T06:12:28.093Z,96095.00
2022-10-30T06:16:50.509Z,96090.00
2022-10-30T06:21:08.244Z,96097.00
2022-10-30T06:25:23.021Z,96089.00
2022-10-30T06:29:34.652Z,96098.00
2022-10-30T06:33:37.365Z,96091.00
2022-10-30T06:37:45.794Z,96088.00
2022-10-30T06:41:48.941Z,96083.00
2022-10-30T06:50:18.925Z,96080.00
2022-10-30T06:54:21.976Z,96085.00
2022-10-30T06:58:47.928Z,96085.00
2022-10-30T07:03:20.825Z,96096.00
2022-10-30T07:07:23.642Z,96100.00
2022-10-30T07:11:26.805Z,96102.00
2022-10-30T07:15:37.086Z,96102.00
2022-10-30T07:19:52.583Z,96101.00
2022-10-30T07:23:55.449Z,96099.00
2022-10-30T07:28:06.084Z,96106.00
2022-10-30T07:32:17.206Z,96106.00
2022-10-30T07:36:27.177Z,96102.00
2022-10-30T07:40:53.422Z,96108.00
2022-10-30T07:45:15.034Z,96116.00
2022-10-30T07:49:36.354Z,96113.00
2022-10-30T07:53:43.505Z,96120.00
2022-10-30T07:57:46.553Z,96123.00
2022-10-30T08:01:52.177Z,96129.00
2022-10-30T08:06:03.775Z,96120.00
2022-10-30T08:10:12.632Z,96114.00
2022-10-30T08:14:15.349Z,96106.00
2022-10-30T08:18:18.213Z,96111.00
2022-10-30T08:22:23.550Z,96109.00
2022-10-30T08:26:36.379Z,96112.00
2022-10-30T08:30:39.896Z,96105.00
2022-10-30T08:34:45.535Z,96112.00
2022-10-30T08:38:51.526Z,96109.00
2022-10-30T08:43:07.754Z,96109.00
2022-10-30T08:47:10.763Z,96109.00
2022-10-30T08:51:15.062Z,96112.00
2022-10-30T08:55:20.644Z,96120.00
2022-10-30T08:59:24.934Z,96117.00
2022-10-30T09:03:29.913Z,96118.00
2022-10-30T09:08:07.750Z,96117.00
2022-10-30T09:12:29.021Z,96112.00
2022-10-30T09:16:33.202Z,96119.00
2022-10-30T09:20:35.990Z,96119.00
2022-10-30T09:24:40.170Z,96121.00
2022-10-30T09:29:01.391Z,96118.00
2022-10-30T09:33:23.981Z,96122.00
2022-10-30T09:37:46.614Z,96125.00
2022-10-30T09:42:08.117Z,96130.00
2022-10-30T09:46:32.662Z,96132.00
2022-10-30T09:50:44.129Z,96141.00
2022-10-30T09:55:03.185Z,96135.00
2022-10-30T09:59:18.657Z,96149.00
2022-10-30T10:03:38.150Z,96148.00
2022-10-30T10:08:24.621Z,96140.00
2022-10-30T10:13:00.197Z,96146.00
2022-10-30T10:17:07.032Z,96147.00
2022-10-30T10:21:19.324Z,96150.00
2022-10-30T10:25:24.713Z,96153.00
2022-10-30T10:29:43.449Z,96158.00
2022-10-30T10:33:59.123Z,96164.00
2022-10-30T10:38:13.650Z,96152.00
2022-10-30T10:42:29.972Z,96152.00
2022-10-30T10:46:46.953Z,96161.00
2022-10-30T10:50:52.521Z,96162.00
2022-10-30T10:54:58.242Z,96160.00
2022-10-30T10:59:05.890Z,96157.00
2022-10-30T11:03:13.333Z,96157.00
2022-10-30T11:07:21.677Z,96153.00
2022-10-30T11:11:24.643Z,96155.00
2022-10-30T11:15:41.128Z,96146.00
2022-10-30T11:19:46.546Z,96142.00
2022-10-30T11:23:53.373Z,96142.00
2022-10-30T11:27:57.714Z,96142.00
2022-10-30T11:32:03.682Z,96139.00
2022-10-30T11:36:15.480Z,96143.00
2022-10-30T11:40:21.350Z,96135.00
2022-10-30T11:44:26.009Z,96139.00
2022-10-30T11:48:32.363Z,96133.00
2022-10-30T11:52:39.508Z,96125.00
2022-10-30T11:56:48.249Z,96123.00
2022-10-30T12:01:01.412Z,96129.00
2022-10-30T12:05:34.925Z,96119.00
2022-10-30T12:09:45.142Z,96119.00
2022-10-30T12:13:47.863Z,96102.00
2022-10-30T12:17:53.287Z,96100.00
2022-10-30T12:21:58.657Z,96093.00
2022-10-30T12:26:08.622Z,96093.00
2022-10-30T12:30:18.888Z,96090.00
2022-10-30T12:34:41.410Z,96083.00
2022-10-30T12:38:50.279Z,96081.00
2022-10-30T12:42:59.660Z,96081.00
2022-10-30T12:47:06.792Z,96085.00
2022-10-30T12:51:21.297Z,96094.00
2022-10-30T12:55:34.872Z,96088.00
2022-10-30T12:59:47.532Z,96088.00
2022-10-30T13:03:54.988Z,96092.00
2022-10-30T13:08:12.993Z,96085.00
2022-10-30T13:12:22.192Z,96094.00
2022-10-30T13:16:28.762Z,96081.00
2022-10-30T13:20:32.401Z,96086.00
2022-10-30T13:24:48.069Z,96078.00
2022-10-30T13:28:56.707Z,96082.00
2022-10-30T13:33:11.161Z,96075.00
2022-10-30T13:37:17.745Z,96074.00
2022-10-30T13:41:31.180Z,96078.00
2022-10-30T13:46:08.192Z,96076.00
2022-10-30T13:50:39.156Z,96075.00
2022-10-30T13:54:47.145Z,96071.00
2022-10-30T13:59:04.019Z,96071.00
2022-10-30T14:03:25.342Z,96080.00
2022-10-30T14:07:34.049Z,96078.00
2022-10-30T14:11:36.765Z,96071.00
2022-10-30T14:15:43.453Z,96082.00
2022-10-30T14:20:26.711Z,96077.00
2022-10-30T14:24:31.200Z,96080.00
2022-10-30T14:28:35.871Z,96077.00
2022-10-30T14:32:43.026Z,96083.00
2022-10-30T14:36:50.734Z,96081.00
2022-10-30T14:41:18.614Z,96080.00
2022-10-30T14:45:26.792Z,96076.00
2022-10-30T14:49:45.161Z,96074.00
2022-10-30T14:54:01.493Z,96075.00
2022-10-30T14:58:19.943Z,96079.00
2022-10-30T15:02:38.226Z,96079.00
2022-10-30T15:06:52.141Z,96085.00
2022-10-30T15:11:15.285Z,96083.00
2022-10-30T15:15:20.585Z,96085.00
2022-10-30T15:19:25.504Z,96080.00
2022-10-30T15:23:29.778Z,96082.00
2022-10-30T15:27:35.644Z,96087.00
2022-10-30T15:31:38.386Z,96089.00
2022-10-30T15:35:48.306Z,96096.00
2022-10-30T15:39:50.989Z,96086.00
2022-10-30T15:43:55.231Z,96092.00
2022-10-30T15:48:00.605Z,96090.00
2022-10-30T15:52:06.018Z,96086.00
2022-10-30T15:56:19.378Z,96082.00
2022-10-30T16:00:26.466Z,96089.00
2022-10-30T16:04:33.226Z,96081.00
2022-10-30T16:08:44.863Z,96090.00
2022-10-30T16:12:48.789Z,96081.00
2022-10-30T16:16:53.259Z,96090.00
2022-10-30T16:20:57.410Z,96095.00
2022-10-30T16:25:00.971Z,96093.00
2022-10-30T16:29:12.238Z,96090.00
2022-10-30T16:33:18.349Z,96091.00
2022-10-30T16:37:27.530Z,96088.00
2022-10-30T16:41:32.309Z,96099.00
2022-10-30T16:46:15.809Z,96103.00
2022-10-30T16:50:21.242Z,96100.00
2022-10-30T16:54:28.200Z,96092.00
2022-10-30T16:58:32.569Z,96107.00
2022-10-30T17:02:37.794Z,96101.00
2022-10-30T17:06:44.514Z,96100.00
2022-10-30T17:10:58.194Z,96106.00
2022-10-30T17:15:12.579Z,96107.00
2022-10-30T17:19:46.200Z,96110.00
2022-10-30T17:23:52.611Z,96125.00
2022-10-30T17:27:55.364Z,96128.00
2022-10-30T17:31:59.597Z,96128.00
2022-10-30T17:36:03.909Z,96137.00
2022-10-30T17:40:09.173Z,96128.00
2022-10-30T17:44:19.268Z,96132.00
2022-10-30T17:48:25.345Z,96131.00
2022-10-30T17:52:28.078Z,96137.00
2022-10-30T17:56:34.604Z,96130.00
2022-10-30T18:00:37.172Z,96131.00
2022-10-30T18:04:42.121Z,96139.00
2022-10-30T18:08:47.912Z,96134.00
2022-10-30T18:12:54.766Z,96139.00
2022-10-30T18:16:57.476Z,96151.00
2022-10-30T18:21:00.178Z,96138.00
2022-10-30T18:25:03.594Z,96144.00
2022-10-30T18:29:07.685Z,96140.00
2022-10-30T18:33:11.589Z,96137.00
2022-10-30T18:37:14.335Z,96152.00
2022-10-30T18:41:19.051Z,96149.00
2022-10-30T18:45:34.155Z,96149.00
2022-10-30T18:49:36.978Z,96143.00
2022-10-30T18:53:39.718Z,96146.00
2022-10-30T18:57:42.442Z,96145.00
2022-10-30T19:01:46.628Z,96148.00
2022-10-30T19:05:50.805Z,96142.00
2022-10-30T19:09:53.498Z,96148.00
2022-10-30T19:13:56.223Z,96146.00
2022-10-30T19:18:01.926Z,96144.00
2022-10-30T19:22:04.894Z,96144.00
2022-10-30T19:26:07.628Z,96139.00
2022-10-30T19:30:11.576Z,96141.00
2022-10-30T19:34:15.665Z,96140.00
2022-10-30T19:38:18.361Z,96140.00
2022-10-30T19:42:21.126Z,96129.00
2022-10-30T19:46:23.851Z,96135.00
2022-10-30T19:50:30.742Z,96130.00
2022-10-30T19:54:33.462Z,96133.00
2022-10-30T19:58:36.206Z,96123.00
2022-10-30T20:02:38.997Z,96131.00
2022-10-30T20:06:43.189Z,96128.00
2022-10-30T20:10:51.577Z,96122.00
2022-10-30T20:14:54.327Z,96133.00
2022-10-30T20:18:58.150Z,96127.00
2022-10-30T20:23:02.361Z,96137.00
2022-10-30T20:27:05.142Z,96134.00
2022-10-30T20:31:08.705Z,96130.00
2022-10-30T20:35:11.536Z,96137.00
2022-10-30T20:39:15.590Z,96142.00
2022-10-30T20:43:20.331Z,96146.00
2022-10-30T20:47:23.050Z,96139.00
2022-10-30T20:51:25.736Z,96144.00
2022-10-30T20:55:29.979Z,96141.00
2022-10-30T20:59:32.755Z,96144.00
2022-10-30T21:03:35.537Z,96150.00
2022-10-30T21:07:38.495Z,96156.00
2022-10-30T21:11:42.545Z,96146.00
2022-10-30T21:15:45.423Z,96139.00
2022-10-30T21:19:48.107Z,96151.00
2022-10-30T21:23:54.651Z,96153.00
2022-10-30T21:27:58.839Z,96149.00
2022-10-30T21:32:01.564Z,96149.00
2022-10-30T21:36:11.643Z,96144.00
2022-10-30T21:40:15.319Z,96146.00
2022-10-30T21:44:19.402Z,96152.00
2022-10-30T21:48:22.111Z,96150.00
2022-10-30T21:52:24.846Z,96148.00
2022-10-30T21:56:29.306Z,96155.00
2022-10-30T22:00:33.506Z,96155.00
2022-10-30T22:04:36.223Z,96150.00
2022-10-30T22:08:39.278Z,96136.00
2022-10-30T22:12:41.958Z,96135.00
2022-10-30T22:16:46.113Z,96134.00
2022-10-30T22:20:48.887Z,96144.00
2022-10-30T22:24:51.672Z,96137.00
2022-10-30T22:28:55.501Z,96137.00
2022-10-30T22:32:59.987Z,96141.00
2022-10-30T22:37:02.841Z,96128.00
2022-10-30T22:41:13.727Z,96135.00
2022-10-30T22:45:16.579Z,96146.00
2022-10-30T22:49:20.807Z,96139.00
2022-10-30T22:53:23.622Z,96134.00
2022-10-30T22:57:26.341Z,96130.00
2022-10-30T23:01:30.766Z,96129.00
2022-10-30T23:05:34.875Z,96132.00
2022-10-30T23:09:37.599Z,96138.00
2022-10-30T23:13:41.277Z,96128.00
2022-10-30T23:17:44.024Z,96130.00
2022-10-30T23:21:48.080Z,96136.00
2022-10-30T23:25:50.818Z,96134.00
2022-10-30T23:29:53.561Z,96132.00
2022-10-30T23:33:58.672Z,96137.00
2022-10-30T23:38:02.729Z,96128.00
2022-10-30T23:42:05.526Z,96130.00
2022-10-30T23:46:08.298Z,96126.00
2022-10-30T23:50:11.119Z,96136.00
2022-10-30T23:54:15.137Z,96135.00
2022-10-30T23:58:17.827Z,96135.00
